createdAt,value
2022-08-18T00:02:09.358Z,99888.48
2022-08-18T00:04:48.446Z,99889.36
2022-08-18T00:07:21.531Z,99893.31
2022-08-18T00:09:49.631Z,99898.80
2022-08-18T00:12:25.028Z,99902.72
2022-08-18T00:14:54.221Z,99902.99
2022-08-18T00:17:23.471Z,99906.61
2022-08-18T00:19:50.977Z,99910.39
2022-08-18T00:22:21.000Z,99920.45
2022-08-18T00:24:54.349Z,99920.41
2022-08-18T00:27:28.192Z,99920.58
2022-08-18T00:30:02.568Z,99926.33
2022-08-18T00:32:38.885Z,99928.45
2022-08-18T00:35:32.606Z,99928.37
2022-08-18T00:38:03.443Z,99929.04
2022-08-18T00:40:38.078Z,99930.04
2022-08-18T00:43:11.722Z,99925.11
2022-08-18T00:45:42.609Z,99926.94
2022-08-18T00:48:12.676Z,99927.92
2022-08-18T00:50:45.205Z,99926.73
2022-08-18T00:53:26.413Z,99929.15
2022-08-18T00:55:56.709Z,99930.20
2022-08-18T00:58:35.628Z,99926.77
2022-08-18T01:01:05.748Z,99926.63
2022-08-18T01:03:39.812Z,99922.17
2022-08-18T01:06:16.182Z,99925.00
2022-08-18T01:08:44.304Z,99924.32
2022-08-18T01:11:11.814Z,99922.84
2022-08-18T01:13:42.199Z,99928.23
2022-08-18T01:16:26.030Z,99929.77
2022-08-18T01:19:09.871Z,99925.16
2022-08-18T01:22:00.267Z,99923.88
2022-08-18T01:24:49.841Z,99926.58
2022-08-18T01:27:19.246Z,99925.55
2022-08-18T01:29:49.570Z,99921.43
2022-08-18T01:32:20.928Z,99923.40
2022-08-18T01:34:51.293Z,99922.45
2022-08-18T01:37:24.026Z,99925.66
2022-08-18T01:41:27.331Z,99922.39
2022-08-18T01:42:43.311Z,99920.92
2022-08-18T01:45:12.764Z,99920.35
2022-08-18T01:47:47.363Z,99920.50
2022-08-18T01:50:17.922Z,99918.44
2022-08-18T01:52:45.788Z,99919.26
2022-08-18T01:55:14.706Z,99916.90
2022-08-18T01:57:45.390Z,99920.33
2022-08-18T02:00:17.172Z,99918.27
2022-08-18T02:02:45.035Z,99921.09
2022-08-18T02:05:18.287Z,99919.56
2022-08-18T02:07:46.016Z,99917.72
2022-08-18T02:10:16.357Z,99914.42
2022-08-18T02:12:44.187Z,99911.41
2022-08-18T02:15:12.206Z,99908.17
2022-08-18T02:17:43.610Z,99909.41
2022-08-18T02:20:14.099Z,99913.81
2022-08-18T02:22:42.153Z,99911.55
2022-08-18T02:25:10.276Z,99906.77
2022-08-18T02:27:37.835Z,99905.53
2022-08-18T02:30:09.497Z,99910.23
2022-08-18T02:32:37.203Z,99905.05
2022-08-18T02:35:08.283Z,99901.29
2022-08-18T02:37:47.966Z,99896.80
2022-08-18T02:40:17.092Z,99896.20
2022-08-18T02:42:46.033Z,99899.73
2022-08-18T02:45:14.723Z,99900.05
2022-08-18T02:47:44.426Z,99897.69
2022-08-18T02:50:13.626Z,99900.14
2022-08-18T02:52:41.261Z,99896.37
2022-08-18T02:55:09.407Z,99895.86
2022-08-18T02:57:42.249Z,99896.86
2022-08-18T03:00:13.569Z,99899.34
2022-08-18T03:02:42.587Z,99900.89
2022-08-18T03:05:14.761Z,99900.91
2022-08-18T03:07:43.234Z,99900.98
2022-08-18T03:10:33.094Z,99902.64
2022-08-18T03:12:59.906Z,99900.94
2022-08-18T03:15:27.467Z,99898.08
2022-08-18T03:17:56.410Z,99900.41
2022-08-18T03:20:30.529Z,99906.33
2022-08-18T03:23:09.873Z,99907.43
2022-08-18T03:25:44.948Z,99904.48
2022-08-18T03:28:13.730Z,99907.84
2022-08-18T03:30:42.009Z,99915.27
2022-08-18T03:33:10.433Z,99915.76
2022-08-18T03:35:38.102Z,99920.88
2022-08-18T03:38:05.643Z,99921.73
2022-08-18T03:40:33.534Z,99922.09
2022-08-18T03:43:50.173Z,99922.64
2022-08-18T03:45:55.432Z,99930.23
2022-08-18T03:48:22.989Z,99936.31
2022-08-18T03:50:50.452Z,99936.73
2022-08-18T03:53:18.614Z,99935.63
2022-08-18T03:55:46.533Z,99937.98
2022-08-18T03:58:15.215Z,99940.52
2022-08-18T04:00:42.733Z,99940.65
2022-08-18T04:03:11.218Z,99943.70
2022-08-18T04:05:40.815Z,99945.43
2022-08-18T04:08:08.519Z,99943.40
2022-08-18T04:10:35.986Z,99941.73
2022-08-18T04:13:05.552Z,99942.36
2022-08-18T04:15:33.150Z,99943.98
2022-08-18T04:18:04.555Z,99946.23
2022-08-18T04:20:33.239Z,99947.99
2022-08-18T04:23:01.570Z,99948.14
2022-08-18T04:25:32.913Z,99949.13
2022-08-18T04:28:03.301Z,99944.69
2022-08-18T04:30:30.954Z,99942.73
2022-08-18T04:32:58.617Z,99946.11
2022-08-18T04:35:29.091Z,99945.20
2022-08-18T04:37:56.755Z,99944.36
2022-08-18T04:40:26.374Z,99944.36
2022-08-18T04:42:53.978Z,99945.67
2022-08-18T04:45:21.484Z,99949.46
2022-08-18T04:47:49.093Z,99951.70
2022-08-18T04:50:16.599Z,99953.20
2022-08-18T04:53:00.084Z,99955.22
2022-08-18T04:55:29.295Z,99958.67
2022-08-18T04:57:59.199Z,99959.04
2022-08-18T05:00:27.065Z,99956.52
2022-08-18T05:02:57.063Z,99962.29
2022-08-18T05:05:24.540Z,99963.81
2022-08-18T05:07:52.313Z,99961.88
2022-08-18T05:10:20.223Z,99961.36
2022-08-18T05:12:48.774Z,99957.62
2022-08-18T05:15:18.985Z,99957.18
2022-08-18T05:17:50.491Z,99955.16
2022-08-18T05:20:20.137Z,99953.23
2022-08-18T05:22:47.740Z,99952.73
2022-08-18T05:25:16.043Z,99955.05
2022-08-18T05:27:44.615Z,99959.58
2022-08-18T05:30:14.961Z,99961.84
2022-08-18T05:32:48.383Z,99958.88
2022-08-18T05:35:23.413Z,99961.73
2022-08-18T05:38:22.978Z,99957.84
2022-08-18T05:41:04.872Z,99959.94
2022-08-18T05:43:33.972Z,99965.38
2022-08-18T05:46:05.197Z,99963.09
2022-08-18T05:48:39.817Z,99969.02
2022-08-18T05:51:17.530Z,99969.32
2022-08-18T05:54:05.684Z,99966.22
2022-08-18T05:56:54.111Z,99964.88
2022-08-18T05:59:41.329Z,99967.90
2022-08-18T06:02:15.957Z,99967.23
2022-08-18T06:04:51.579Z,99964.95
2022-08-18T06:07:35.856Z,99964.01
2022-08-18T06:10:06.441Z,99960.21
2022-08-18T06:12:41.128Z,99960.55
2022-08-18T06:15:41.721Z,99962.02
2022-08-18T06:18:30.858Z,99963.09
2022-08-18T06:21:14.270Z,99959.98
2022-08-18T06:24:07.014Z,99961.82
2022-08-18T06:26:56.640Z,99963.48
2022-08-18T06:29:47.795Z,99960.36
2022-08-18T06:32:47.299Z,99959.94
2022-08-18T06:35:30.680Z,99960.02
2022-08-18T06:38:16.790Z,99958.98
2022-08-18T06:40:48.067Z,99961.66
2022-08-18T06:43:17.254Z,99964.95
2022-08-18T06:45:51.963Z,99970.58
2022-08-18T06:48:40.234Z,99971.70
2022-08-18T06:51:08.623Z,99971.20
2022-08-18T06:54:08.192Z,99967.05
2022-08-18T06:56:38.779Z,99968.52
2022-08-18T06:59:30.543Z,99971.61
2022-08-18T07:02:10.507Z,99970.67
2022-08-18T07:05:15.334Z,99975.63
2022-08-18T07:07:43.353Z,99972.52
2022-08-18T07:10:13.834Z,99981.63
2022-08-18T07:12:41.857Z,99984.66
2022-08-18T07:15:12.399Z,99987.73
2022-08-18T07:17:42.885Z,99988.20
2022-08-18T07:20:22.415Z,99986.53
2022-08-18T07:23:00.984Z,99980.81
2022-08-18T07:25:42.732Z,99981.49
2022-08-18T07:28:42.246Z,99980.08
2022-08-18T07:31:20.001Z,99983.09
2022-08-18T07:34:00.296Z,99984.69
2022-08-18T07:36:47.514Z,99985.33
2022-08-18T07:39:23.868Z,99982.28
2022-08-18T07:42:53.722Z,99983.75
2022-08-18T07:45:23.827Z,99987.20
2022-08-18T07:48:37.108Z,99988.70
2022-08-18T07:51:22.217Z,99988.38
2022-08-18T07:54:00.436Z,99990.89
2022-08-18T07:56:51.061Z,99990.76
2022-08-18T07:59:47.152Z,99989.77
2022-08-18T08:02:55.149Z,99993.25
2022-08-18T08:05:55.998Z,99996.06
2022-08-18T08:08:55.235Z,99993.67
2022-08-18T08:11:38.710Z,99989.08
2022-08-18T08:14:28.266Z,99991.66
2022-08-18T08:17:10.720Z,99990.98
2022-08-18T08:19:59.455Z,99990.23
2022-08-18T08:22:43.419Z,99988.06
2022-08-18T08:25:44.493Z,99988.80
2022-08-18T08:28:39.478Z,99992.96
2022-08-18T08:31:36.574Z,99995.36
2022-08-18T09:07:48.736Z,99978.27
2022-08-18T09:10:22.262Z,99978.10
2022-08-18T09:12:53.003Z,99976.72
2022-08-18T09:15:30.313Z,99979.08
2022-08-18T09:18:29.724Z,99979.48
2022-08-18T09:21:04.337Z,99977.64
2022-08-18T09:23:39.857Z,99976.48
2022-08-18T09:26:39.621Z,99974.48
2022-08-18T09:29:23.472Z,99969.30
2022-08-18T09:32:20.050Z,99966.33
2022-08-18T09:34:59.288Z,99964.38
2022-08-18T09:37:33.677Z,99963.38
2022-08-18T09:40:59.393Z,99958.30
2022-08-18T09:43:52.364Z,99961.44
2022-08-18T09:46:41.499Z,99963.09
2022-08-18T09:49:27.789Z,99961.85
2022-08-18T09:52:02.228Z,99962.55
2022-08-18T09:54:49.834Z,99961.88
2022-08-18T09:57:22.414Z,99965.77
2022-08-18T09:59:53.111Z,99969.12
2022-08-18T10:02:28.437Z,99968.66
2022-08-18T10:05:16.889Z,99964.38
2022-08-18T10:08:03.559Z,99967.29
2022-08-18T10:10:59.384Z,99964.72
2022-08-18T10:13:51.180Z,99963.88
2022-08-18T10:16:51.060Z,99970.22
2022-08-18T10:19:39.323Z,99966.68
2022-08-18T10:22:10.610Z,99968.44
2022-08-18T10:24:46.364Z,99971.69
2022-08-18T10:27:32.606Z,99970.27
2022-08-18T10:30:01.730Z,99970.94
2022-08-18T10:32:44.294Z,99972.13
2022-08-18T10:35:36.126Z,99966.27
2022-08-18T10:38:21.698Z,99965.42
2022-08-18T10:41:00.320Z,99967.15
2022-08-18T10:46:42.644Z,99969.66
2022-08-18T10:49:14.300Z,99969.06
2022-08-18T10:52:12.522Z,99968.16
2022-08-18T10:55:10.283Z,99964.07
2022-08-18T10:57:56.477Z,99963.80
2022-08-18T11:00:40.601Z,99964.48
2022-08-18T11:03:51.392Z,99957.49
2022-08-18T11:06:24.777Z,99960.45
2022-08-18T11:09:00.050Z,99957.69
2022-08-18T11:12:00.673Z,99956.14
2022-08-18T11:14:56.549Z,99955.07
2022-08-18T11:17:43.315Z,99950.33
2022-08-18T11:20:15.180Z,99945.27
2022-08-18T11:22:53.408Z,99943.65
2022-08-18T11:25:28.965Z,99936.36
2022-08-18T11:27:57.544Z,99937.09
2022-08-18T11:30:37.444Z,99934.59
2022-08-18T11:33:07.751Z,99930.60
2022-08-18T11:36:06.885Z,99924.39
2022-08-18T11:38:39.437Z,99922.84
2022-08-18T11:41:33.904Z,99922.95
2022-08-18T11:44:20.044Z,99925.19
2022-08-18T11:46:47.635Z,99921.98
2022-08-18T11:49:30.042Z,99923.39
2022-08-18T11:52:25.137Z,99918.46
2022-08-18T11:55:16.586Z,99914.35
2022-08-18T11:57:59.597Z,99913.91
2022-08-18T12:00:54.530Z,99908.86
2022-08-18T12:03:45.298Z,99904.20
2022-08-18T12:06:21.655Z,99909.30
2022-08-18T12:09:02.400Z,99906.83
2022-08-18T12:11:33.900Z,99899.01
2022-08-18T12:14:32.310Z,99897.36
2022-08-18T12:17:02.098Z,99895.27
2022-08-18T12:19:31.209Z,99890.06
2022-08-18T12:22:15.488Z,99889.11
2022-08-18T12:24:46.656Z,99882.88
2022-08-18T12:27:21.278Z,99886.02
2022-08-18T12:29:52.735Z,99879.00
2022-08-18T12:32:47.063Z,99882.86
2022-08-18T12:35:12.225Z,99883.66
2022-08-18T12:37:58.974Z,99878.35
2022-08-18T12:40:28.172Z,99868.64
2022-08-18T12:42:55.795Z,99866.92
2022-08-18T12:45:25.801Z,99865.38
2022-08-18T12:47:54.636Z,99872.19
2022-08-18T12:50:31.441Z,99867.86
2022-08-18T12:53:01.968Z,99866.07
2022-08-18T12:55:34.674Z,99866.70
2022-08-18T12:58:04.993Z,99868.46
2022-08-18T13:00:32.824Z,99864.93
2022-08-18T13:03:00.871Z,99862.73
2022-08-18T13:05:29.890Z,99861.81
2022-08-18T13:08:00.747Z,99861.06
2022-08-18T13:10:42.909Z,99855.31
2022-08-18T13:13:16.675Z,99863.08
2022-08-18T13:15:55.323Z,99861.26
2022-08-18T13:18:28.770Z,99856.88
2022-08-18T13:21:00.609Z,99858.86
2022-08-18T13:23:28.264Z,99855.85
2022-08-18T13:25:59.567Z,99854.29
2022-08-18T13:28:33.596Z,99855.86
2022-08-18T13:31:05.283Z,99851.23
2022-08-18T13:33:56.598Z,99848.18
2022-08-18T13:36:23.882Z,99845.02
2022-08-18T13:38:54.544Z,99844.77
2022-08-18T13:43:52.495Z,99838.34
2022-08-18T13:46:24.288Z,99841.17
2022-08-18T13:49:02.145Z,99841.42
2022-08-18T13:51:31.141Z,99841.91
2022-08-18T13:54:26.568Z,99831.32
2022-08-18T13:56:51.536Z,99836.89
2022-08-18T13:59:21.797Z,99833.89
2022-08-18T14:01:53.102Z,99843.56
2022-08-18T14:04:22.689Z,99842.70
2022-08-18T14:06:56.357Z,99843.00
2022-08-18T14:09:27.975Z,99845.16
2022-08-18T14:12:21.430Z,99844.96
2022-08-18T14:14:52.993Z,99850.73
2022-08-18T14:17:23.452Z,99856.01
2022-08-18T14:20:10.642Z,99852.27
2022-08-18T14:22:59.178Z,99854.52
2022-08-18T14:25:42.651Z,99855.77
2022-08-18T14:28:11.923Z,99860.80
2022-08-18T14:30:40.525Z,99861.53
2022-08-18T14:36:05.953Z,99859.81
2022-08-18T14:38:36.582Z,99860.66
2022-08-18T14:41:09.732Z,99862.79
2022-08-18T14:44:10.867Z,99865.23
2022-08-18T14:46:30.487Z,99866.73
2022-08-18T14:49:03.931Z,99873.16
2022-08-18T14:51:33.504Z,99868.18
2022-08-18T14:54:02.357Z,99870.21
2022-08-18T14:56:33.275Z,99867.95
2022-08-18T14:59:01.494Z,99868.11
2022-08-18T15:01:29.099Z,99864.81
2022-08-18T15:04:19.301Z,99863.92
2022-08-18T15:06:55.763Z,99866.25
2022-08-18T15:09:27.323Z,99858.91
2022-08-18T15:11:58.682Z,99855.23
2022-08-18T15:14:34.694Z,99850.44
2022-08-18T15:17:11.818Z,99849.83
2022-08-18T15:19:59.707Z,99850.87
2022-08-18T15:22:44.566Z,99844.17
2022-08-18T15:25:28.014Z,99843.68
2022-08-18T15:27:56.017Z,99840.20
2022-08-18T15:30:23.542Z,99839.05
2022-08-18T15:32:51.347Z,99840.85
2022-08-18T15:35:19.680Z,99842.09
2022-08-18T15:37:53.779Z,99841.89
2022-08-18T15:40:30.910Z,99832.94
2022-08-18T15:43:10.003Z,99831.16
2022-08-18T15:45:56.177Z,99827.75
2022-08-18T15:48:27.790Z,99833.30
2022-08-18T15:50:55.949Z,99834.33
2022-08-18T15:53:29.676Z,99834.08
2022-08-18T15:55:57.842Z,99834.60
2022-08-18T15:58:26.985Z,99832.64
2022-08-18T16:00:58.958Z,99833.91
2022-08-18T16:03:26.678Z,99829.37
2022-08-18T16:05:55.588Z,99828.86
2022-08-18T16:08:25.744Z,99821.00
2022-08-18T16:10:54.340Z,99816.41
2022-08-18T16:13:24.984Z,99815.83
2022-08-18T16:15:52.489Z,99813.92
2022-08-18T16:18:20.986Z,99812.91
2022-08-18T16:20:52.562Z,99810.85
2022-08-18T16:23:20.515Z,99806.73
2022-08-18T16:25:48.023Z,99803.64
2022-08-18T16:28:15.498Z,99804.73
2022-08-18T16:30:42.968Z,99803.83
2022-08-18T16:33:10.415Z,99800.53
2022-08-18T16:35:37.878Z,99805.59
2022-08-18T16:38:09.414Z,99813.67
2022-08-18T16:40:37.590Z,99811.23
2022-08-18T16:43:06.609Z,99806.30
2022-08-18T16:45:36.810Z,99801.63
2022-08-18T16:48:06.374Z,99807.17
2022-08-18T16:50:35.140Z,99807.84
2022-08-18T16:53:03.304Z,99804.60
2022-08-18T16:55:31.794Z,99803.73
2022-08-18T16:58:15.800Z,99810.27
2022-08-18T17:01:00.277Z,99814.76
2022-08-18T17:03:43.298Z,99811.48
2022-08-18T17:06:14.603Z,99810.70
2022-08-18T17:08:43.586Z,99811.77
2022-08-18T17:11:14.699Z,99809.42
2022-08-18T17:13:43.658Z,99807.16
2022-08-18T17:16:11.859Z,99809.95
2022-08-18T17:18:40.718Z,99812.52
2022-08-18T17:21:11.455Z,99813.37
2022-08-18T17:23:39.752Z,99816.09
2022-08-18T17:26:12.677Z,99818.80
2022-08-18T17:28:50.670Z,99816.80
2022-08-18T17:31:24.252Z,99818.72
2022-08-18T17:33:57.174Z,99820.41
2022-08-18T17:36:42.382Z,99823.34
2022-08-18T17:39:28.001Z,99814.91
2022-08-18T17:42:11.508Z,99815.42
2022-08-18T17:44:46.245Z,99819.42
2022-08-18T17:47:30.142Z,99819.53
2022-08-18T17:50:26.723Z,99820.23
2022-08-18T17:53:06.094Z,99814.74
2022-08-18T17:55:44.222Z,99809.70
2022-08-18T17:58:34.851Z,99807.25
2022-08-18T18:01:03.696Z,99809.00
2022-08-18T18:03:31.230Z,99805.17
2022-08-18T18:06:18.324Z,99805.94
2022-08-18T18:09:04.137Z,99805.80
2022-08-18T18:11:47.009Z,99813.70
2022-08-18T18:14:34.377Z,99817.39
2022-08-18T18:17:12.738Z,99819.30
2022-08-18T18:19:47.584Z,99819.77
2022-08-18T18:22:26.948Z,99822.00
2022-08-18T18:25:00.377Z,99829.77
2022-08-18T18:27:48.492Z,99833.22
2022-08-18T18:30:23.916Z,99833.53
2022-08-18T18:33:05.425Z,99839.63
2022-08-18T18:35:54.290Z,99841.71
2022-08-18T18:38:31.817Z,99841.26
2022-08-18T18:41:17.100Z,99836.84
2022-08-18T18:43:46.914Z,99833.69
2022-08-18T18:46:19.506Z,99834.53
2022-08-18T18:49:05.997Z,99834.05
2022-08-18T18:51:53.429Z,99841.95
2022-08-18T18:54:38.039Z,99846.96
2022-08-18T18:57:16.102Z,99851.42
2022-08-18T19:00:14.365Z,99851.92
2022-08-18T19:03:16.570Z,99856.01
2022-08-18T19:05:52.850Z,99855.98
2022-08-18T19:08:26.453Z,99854.71
2022-08-18T19:11:03.410Z,99855.23
2022-08-18T19:13:49.474Z,99853.29
2022-08-18T19:16:28.696Z,99855.13
2022-08-18T19:19:38.365Z,99860.56
2022-08-18T19:22:09.243Z,99861.45
2022-08-18T19:24:48.087Z,99865.04
2022-08-18T19:27:24.444Z,99873.11
2022-08-18T19:29:57.429Z,99874.70
2022-08-18T19:32:35.793Z,99876.52
2022-08-18T19:35:11.806Z,99882.21
2022-08-18T19:37:49.628Z,99884.86
2022-08-18T19:40:49.052Z,99886.64
2022-08-18T19:43:38.067Z,99884.13
2022-08-18T19:46:18.021Z,99881.34
2022-08-18T19:49:08.823Z,99876.80
2022-08-18T19:51:40.748Z,99869.88
2022-08-18T19:54:40.249Z,99871.06
2022-08-18T19:57:08.519Z,99869.59
2022-08-18T20:00:04.935Z,99874.27
2022-08-18T20:03:11.437Z,99876.71
2022-08-18T20:05:55.051Z,99877.61
2022-08-18T20:08:38.753Z,99878.45
2022-08-18T20:11:41.022Z,99877.80
2022-08-18T20:14:12.591Z,99873.27
2022-08-18T20:16:44.929Z,99868.40
2022-08-18T20:19:39.953Z,99866.64
2022-08-18T20:22:29.143Z,99871.38
2022-08-18T20:25:24.657Z,99870.58
2022-08-18T20:27:59.572Z,99864.31
2022-08-18T20:30:40.017Z,99864.46
2022-08-18T20:33:29.321Z,99866.40
2022-08-18T20:36:25.836Z,99869.36
2022-08-18T20:38:56.134Z,99871.33
2022-08-18T20:41:31.194Z,99870.02
2022-08-18T20:44:28.960Z,99863.07
2022-08-18T20:47:29.210Z,99854.05
2022-08-18T20:50:38.799Z,99847.03
2022-08-18T20:53:12.700Z,99848.67
2022-08-18T20:55:57.084Z,99844.52
2022-08-18T20:58:34.133Z,99841.45
2022-08-18T21:01:02.287Z,99841.56
2022-08-18T21:03:42.895Z,99848.36
2022-08-18T21:06:13.411Z,99854.08
2022-08-18T21:08:48.109Z,99847.78
2022-08-18T21:11:32.454Z,99850.64
2022-08-18T21:14:04.126Z,99850.04
2022-08-18T21:16:38.743Z,99846.60
2022-08-18T21:19:18.301Z,99846.89
2022-08-18T21:21:57.299Z,99850.34
2022-08-18T21:24:32.867Z,99852.54
2022-08-18T21:27:10.464Z,99851.14
2022-08-18T21:29:47.240Z,99846.55
2022-08-18T21:32:29.058Z,99835.63
2022-08-18T21:34:57.618Z,99839.77
2022-08-18T21:37:25.063Z,99841.10
2022-08-18T21:40:01.485Z,99840.61
2022-08-18T21:42:33.406Z,99844.59
2022-08-18T21:45:01.330Z,99843.11
2022-08-18T21:47:32.545Z,99835.64
2022-08-18T21:50:11.074Z,99838.83
2022-08-18T21:52:51.483Z,99838.32
2022-08-18T21:55:31.706Z,99836.72
2022-08-18T21:58:06.876Z,99834.53
2022-08-18T22:00:43.986Z,99834.17
2022-08-18T22:03:20.633Z,99831.66
2022-08-18T22:06:12.767Z,99832.70
2022-08-18T22:08:50.052Z,99835.85
2022-08-18T22:12:00.118Z,99832.58
2022-08-18T22:14:54.605Z,99828.17
2022-08-18T22:17:45.026Z,99830.23
2022-08-18T22:20:34.299Z,99826.88
2022-08-18T22:23:39.658Z,99825.34
2022-08-18T22:26:14.951Z,99823.65
2022-08-18T22:29:05.767Z,99822.71
2022-08-18T22:31:41.221Z,99824.63
2022-08-18T22:34:13.498Z,99826.98
2022-08-18T22:36:52.745Z,99821.98
2022-08-18T22:39:41.554Z,99820.80
2022-08-18T22:42:10.129Z,99817.70
2022-08-18T22:44:38.127Z,99820.02
2022-08-18T22:47:06.715Z,99817.21
2022-08-18T22:49:36.810Z,99816.70
2022-08-18T22:52:15.535Z,99819.02
2022-08-18T22:54:43.584Z,99817.77
2022-08-18T22:57:11.316Z,99815.64
2022-08-18T22:59:42.652Z,99816.03
2022-08-18T23:02:11.185Z,99811.39
2022-08-18T23:04:38.912Z,99810.17
2022-08-18T23:07:06.758Z,99811.86
2022-08-18T23:09:34.356Z,99815.59
2022-08-18T23:12:05.618Z,99820.46
2022-08-18T23:14:33.988Z,99819.34
2022-08-18T23:17:02.961Z,99819.52
2022-08-18T23:19:31.987Z,99820.25
2022-08-18T23:22:01.359Z,99819.76
2022-08-18T23:24:29.553Z,99821.47
2022-08-18T23:26:58.130Z,99820.87
2022-08-18T23:29:25.617Z,99818.34
2022-08-18T23:31:53.286Z,99817.44
2022-08-18T23:34:23.732Z,99815.15
2022-08-18T23:36:56.681Z,99815.59
2022-08-18T23:39:25.575Z,99818.59
2022-08-18T23:41:53.755Z,99819.31
2022-08-18T23:44:27.539Z,99820.98
2022-08-18T23:46:58.003Z,99826.92
2022-08-18T23:49:29.255Z,99820.54
2022-08-18T23:51:57.943Z,99817.95
2022-08-18T23:54:32.969Z,99816.73
2022-08-18T23:57:01.074Z,99814.58
2022-08-18T23:59:30.200Z,99813.90
